Time;durP1;ratioP1;P1;durP2;ratioP2;P2;SDS_P1;SDS_P2;PMS_P1;PMS_P2;Temp;Humidity;BMP_temperature;BMP_pressure;BME280_temperature;BME280_humidity;BME280_pressure;Samples;Min_cycle;Max_cycle;Signal;HPM_P1;HPM_P2
2023/06/30 00:02:18;;;;;;;9.77;8.77;;;;;;;;;;5025171;28;20487;-82
2023/06/30 00:04:47;;;;;;;10.50;9.27;;;;;;;;;;5025016;28;20444;-81
2023/06/30 00:07:14;;;;;;;14.20;7.63;;;;;;;;;;5027289;28;20472;-82
2023/06/30 00:09:40;;;;;;;12.00;7.67;;;;;;;;;;5033998;28;20455;-81
2023/06/30 00:12:07;;;;;;;7.93;6.40;;;;;;;;;;5025943;28;20481;-82
2023/06/30 00:14:33;;;;;;;8.53;5.67;;;;;;;;;;5030842;28;20535;-81
2023/06/30 00:17:01;;;;;;;9.93;6.30;;;;;;;;;;5006024;28;20541;-82
2023/06/30 00:19:28;;;;;;;7.70;5.10;;;;;;;;;;5017368;28;20883;-81
2023/06/30 00:21:55;;;;;;;8.40;5.60;;;;;;;;;;5026472;28;21049;-82
2023/06/30 00:24:21;;;;;;;5.50;5.00;;;;;;;;;;5024870;28;20453;-81
2023/06/30 00:26:48;;;;;;;10.13;5.37;;;;;;;;;;5032599;28;20497;-81
2023/06/30 00:29:15;;;;;;;10.17;5.70;;;;;;;;;;5022666;28;20469;-81
2023/06/30 00:31:41;;;;;;;8.37;5.10;;;;;;;;;;5028599;28;21072;-81
2023/06/30 00:34:09;;;;;;;5.77;4.70;;;;;;;;;;5034412;28;20943;-81
2023/06/30 00:36:35;;;;;;;11.20;5.67;;;;;;;;;;5024843;28;20485;-81
2023/06/30 00:39:02;;;;;;;8.77;6.73;;;;;;;;;;5027347;28;20474;-81
2023/06/30 00:41:29;;;;;;;7.63;5.20;;;;;;;;;;5037216;28;20472;-82
2023/06/30 00:43:55;;;;;;;6.73;5.30;;;;;;;;;;5033805;28;20455;-81
2023/06/30 00:46:22;;;;;;;8.87;5.93;;;;;;;;;;5027491;28;20861;-82
2023/06/30 00:48:49;;;;;;;8.47;5.27;;;;;;;;;;5030357;28;20477;-81
2023/06/30 00:51:17;;;;;;;9.20;5.60;;;;;;;;;;5028367;28;20555;-81
2023/06/30 00:53:44;;;;;;;9.03;7.43;;;;;;;;;;5030505;28;20460;-81
2023/06/30 00:56:10;;;;;;;8.10;5.80;;;;;;;;;;5031236;28;21017;-81
2023/06/30 00:58:36;;;;;;;15.77;6.00;;;;;;;;;;5033900;28;20488;-81
2023/06/30 01:01:06;;;;;;;14.33;6.93;;;;;;;;;;5029619;28;20480;-81
2023/06/30 01:03:36;;;;;;;12.40;6.37;;;;;;;;;;5029649;28;20827;-81
2023/06/30 01:06:08;;;;;;;6.90;6.20;;;;;;;;;;5033152;28;20472;-81
2023/06/30 01:08:40;;;;;;;12.50;7.20;;;;;;;;;;5041378;28;20463;-81
2023/06/30 01:11:07;;;;;;;9.57;5.30;;;;;;;;;;5027402;28;20473;-81
2023/06/30 01:13:33;;;;;;;9.00;6.50;;;;;;;;;;5032514;28;20454;-83
2023/06/30 01:16:00;;;;;;;8.20;5.90;;;;;;;;;;5023514;28;20492;-81
2023/06/30 01:18:27;;;;;;;7.37;5.67;;;;;;;;;;5030708;28;20465;-81
2023/06/30 01:20:55;;;;;;;7.80;6.87;;;;;;;;;;5031593;28;20476;-81
2023/06/30 01:23:28;;;;;;;8.47;5.20;;;;;;;;;;5026668;28;20453;-80
2023/06/30 01:25:58;;;;;;;9.00;5.50;;;;;;;;;;5031992;28;20476;-81
2023/06/30 01:28:26;;;;;;;6.83;5.60;;;;;;;;;;5033196;28;20472;-82
2023/06/30 01:30:52;;;;;;;10.47;5.70;;;;;;;;;;5031908;28;20531;-81
2023/06/30 01:33:19;;;;;;;9.57;6.10;;;;;;;;;;5029547;28;20544;-81
2023/06/30 01:35:45;;;;;;;6.07;5.43;;;;;;;;;;5040935;28;20895;-81
2023/06/30 01:38:11;;;;;;;7.10;5.30;;;;;;;;;;5028392;28;20492;-81
2023/06/30 01:40:38;;;;;;;6.40;5.73;;;;;;;;;;5032341;28;20472;-81
2023/06/30 01:43:06;;;;;;;8.90;5.80;;;;;;;;;;5031266;28;20456;-81
2023/06/30 01:45:32;;;;;;;10.63;6.20;;;;;;;;;;5033365;28;20473;-81
2023/06/30 01:47:59;;;;;;;6.60;5.63;;;;;;;;;;5021505;28;20480;-83
2023/06/30 01:50:29;;;;;;;7.03;5.80;;;;;;;;;;5031503;28;20834;-81
2023/06/30 01:52:55;;;;;;;9.10;5.13;;;;;;;;;;5036563;28;20457;-81
2023/06/30 01:55:22;;;;;;;6.77;4.93;;;;;;;;;;5035628;28;20990;-81
2023/06/30 01:57:48;;;;;;;8.67;5.33;;;;;;;;;;5031956;28;20484;-81
2023/06/30 02:00:16;;;;;;;4.90;4.50;;;;;;;;;;5034626;28;20464;-81
2023/06/30 02:02:43;;;;;;;5.80;4.80;;;;;;;;;;5034538;28;20456;-81
2023/06/30 02:05:09;;;;;;;9.40;5.17;;;;;;;;;;5036140;28;20424;-81
2023/06/30 02:07:35;;;;;;;8.23;5.70;;;;;;;;;;5034096;28;20529;-81
2023/06/30 02:10:02;;;;;;;5.63;5.13;;;;;;;;;;5032844;28;20462;-81
2023/06/30 02:12:28;;;;;;;5.87;5.10;;;;;;;;;;5038224;28;20446;-81
2023/06/30 02:14:55;;;;;;;9.13;5.10;;;;;;;;;;5028788;28;20449;-82
2023/06/30 02:17:28;;;;;;;5.50;4.73;;;;;;;;;;5033699;28;20496;-80
2023/06/30 02:19:54;;;;;;;11.00;4.97;;;;;;;;;;5035594;28;20460;-81
2023/06/30 02:22:21;;;;;;;7.40;5.10;;;;;;;;;;5033690;28;20465;-80
2023/06/30 02:24:47;;;;;;;6.40;5.10;;;;;;;;;;5034779;28;20461;-81
2023/06/30 02:27:14;;;;;;;9.67;5.70;;;;;;;;;;5032042;28;20553;-81
2023/06/30 02:29:41;;;;;;;10.70;5.50;;;;;;;;;;5034721;28;20439;-81
2023/06/30 02:32:07;;;;;;;5.93;5.33;;;;;;;;;;5034662;28;20481;-81
2023/06/30 02:34:35;;;;;;;15.07;6.20;;;;;;;;;;5035993;28;20452;-81
2023/06/30 02:37:02;;;;;;;9.80;5.10;;;;;;;;;;5033455;28;20483;-81
2023/06/30 02:39:28;;;;;;;10.73;5.40;;;;;;;;;;5030866;28;20457;-81
2023/06/30 02:41:54;;;;;;;7.30;6.43;;;;;;;;;;5033696;28;20472;-81
2023/06/30 02:44:21;;;;;;;9.57;6.40;;;;;;;;;;5028982;28;20456;-81
2023/06/30 02:46:47;;;;;;;9.33;6.43;;;;;;;;;;5033749;28;20476;-81
2023/06/30 02:49:14;;;;;;;6.70;6.07;;;;;;;;;;5021710;28;20997;-81
2023/06/30 02:51:42;;;;;;;7.90;6.30;;;;;;;;;;5015627;28;20500;-81
2023/06/30 02:54:08;;;;;;;8.93;6.30;;;;;;;;;;5033981;28;20503;-81
2023/06/30 02:56:34;;;;;;;7.97;6.60;;;;;;;;;;5033878;28;20477;-81
2023/06/30 02:59:01;;;;;;;18.17;7.90;;;;;;;;;;5015481;28;20466;-80
2023/06/30 03:01:27;;;;;;;10.47;8.30;;;;;;;;;;5027334;28;20499;-81
2023/06/30 03:03:54;;;;;;;9.90;8.30;;;;;;;;;;5027004;28;20859;-81
2023/06/30 03:06:21;;;;;;;13.13;10.13;;;;;;;;;;5032225;28;20476;-81
2023/06/30 03:08:48;;;;;;;11.77;7.97;;;;;;;;;;5024647;28;20473;-81
2023/06/30 03:11:15;;;;;;;13.63;8.60;;;;;;;;;;5021522;28;20468;-81
2023/06/30 03:13:41;;;;;;;13.77;8.70;;;;;;;;;;5031599;28;20468;-81
2023/06/30 03:16:08;;;;;;;10.50;8.30;;;;;;;;;;5020816;28;20838;-81
2023/06/30 03:18:34;;;;;;;11.13;8.50;;;;;;;;;;5034709;28;20484;-81
2023/06/30 03:21:00;;;;;;;13.27;9.00;;;;;;;;;;5029119;28;20994;-81
2023/06/30 03:23:27;;;;;;;10.33;8.30;;;;;;;;;;5030915;28;20444;-81
2023/06/30 03:25:55;;;;;;;15.97;8.80;;;;;;;;;;5031381;28;20439;-81
2023/06/30 03:28:21;;;;;;;9.83;8.53;;;;;;;;;;5031722;28;20469;-81
2023/06/30 03:30:47;;;;;;;14.10;8.70;;;;;;;;;;5029680;28;20478;-80
2023/06/30 03:33:14;;;;;;;14.40;9.33;;;;;;;;;;5024272;28;20965;-81
2023/06/30 03:35:40;;;;;;;17.87;11.23;;;;;;;;;;5031999;28;20479;-81
2023/06/30 03:38:07;;;;;;;15.87;9.40;;;;;;;;;;5029617;28;20484;-81
2023/06/30 03:40:33;;;;;;;15.33;11.53;;;;;;;;;;5029440;28;20472;-81
2023/06/30 03:43:01;;;;;;;16.30;11.67;;;;;;;;;;5027422;28;20951;-81
2023/06/30 03:45:27;;;;;;;14.33;10.90;;;;;;;;;;5025412;28;20464;-81
2023/06/30 03:47:54;;;;;;;13.60;11.10;;;;;;;;;;5033737;28;20479;-83
2023/06/30 03:50:20;;;;;;;15.70;11.13;;;;;;;;;;5029932;28;20464;-81
2023/06/30 03:52:46;;;;;;;17.30;11.30;;;;;;;;;;5023777;28;20453;-82
2023/06/30 03:55:13;;;;;;;13.10;11.43;;;;;;;;;;5032640;28;20452;-81
2023/06/30 03:57:39;;;;;;;15.57;12.57;;;;;;;;;;5023409;28;20508;-81
2023/06/30 04:00:11;;;;;;;14.27;11.10;;;;;;;;;;5025591;28;20453;-81
2023/06/30 04:02:38;;;;;;;14.13;10.80;;;;;;;;;;5030601;28;20461;-81
2023/06/30 04:05:04;;;;;;;15.27;10.67;;;;;;;;;;5031620;28;20468;-81
2023/06/30 04:07:30;;;;;;;15.50;11.83;;;;;;;;;;5027604;28;20477;-81
2023/06/30 04:09:57;;;;;;;13.67;11.40;;;;;;;;;;5029042;28;20436;-81
2023/06/30 04:12:23;;;;;;;24.47;11.77;;;;;;;;;;5034283;28;20468;-81
2023/06/30 04:14:49;;;;;;;20.87;11.60;;;;;;;;;;5027400;28;20456;-81
2023/06/30 04:17:17;;;;;;;15.10;10.93;;;;;;;;;;5031979;28;21005;-81
2023/06/30 04:19:44;;;;;;;15.67;10.60;;;;;;;;;;5033509;28;20430;-81
2023/06/30 04:22:10;;;;;;;12.23;10.90;;;;;;;;;;5028250;28;20487;-80
2023/06/30 04:24:36;;;;;;;14.33;11.20;;;;;;;;;;5031322;28;20446;-81
2023/06/30 04:27:03;;;;;;;17.70;10.10;;;;;;;;;;5029162;28;20897;-81
2023/06/30 04:29:29;;;;;;;13.67;8.70;;;;;;;;;;5031650;28;20415;-81
2023/06/30 04:31:56;;;;;;;16.00;9.43;;;;;;;;;;5031574;28;20470;-82
2023/06/30 04:34:24;;;;;;;16.33;9.63;;;;;;;;;;5031697;28;20972;-81
2023/06/30 04:36:52;;;;;;;16.87;10.73;;;;;;;;;;5028564;28;20451;-81
2023/06/30 04:39:19;;;;;;;16.40;9.80;;;;;;;;;;5044430;28;20456;-81
2023/06/30 04:41:45;;;;;;;13.73;9.17;;;;;;;;;;5032399;28;20483;-80
2023/06/30 04:44:12;;;;;;;17.67;11.37;;;;;;;;;;5028339;28;20461;-79
2023/06/30 04:46:38;;;;;;;13.97;9.13;;;;;;;;;;5029167;28;21017;-82
2023/06/30 04:49:05;;;;;;;16.27;9.10;;;;;;;;;;5033724;28;20924;-80
2023/06/30 04:51:33;;;;;;;15.43;9.37;;;;;;;;;;5026570;28;20477;-80
2023/06/30 04:54:00;;;;;;;17.30;9.70;;;;;;;;;;5029362;28;20471;-80
2023/06/30 04:56:26;;;;;;;14.00;10.30;;;;;;;;;;5029627;28;20447;-79
2023/06/30 04:58:53;;;;;;;16.00;10.00;;;;;;;;;;5032256;28;20542;-80
2023/06/30 05:01:19;;;;;;;14.40;8.93;;;;;;;;;;5033070;28;20472;-81
2023/06/30 05:03:46;;;;;;;13.17;9.53;;;;;;;;;;5030595;28;20448;-80
2023/06/30 05:06:12;;;;;;;17.03;10.33;;;;;;;;;;5029022;28;20479;-79
2023/06/30 05:08:40;;;;;;;17.20;10.33;;;;;;;;;;5027731;28;20469;-81
2023/06/30 05:11:06;;;;;;;19.73;10.53;;;;;;;;;;5030654;28;20979;-79
2023/06/30 05:13:32;;;;;;;18.60;10.20;;;;;;;;;;5032982;28;20464;-80
2023/06/30 05:15:59;;;;;;;15.27;11.13;;;;;;;;;;5026059;28;20479;-81
2023/06/30 05:18:25;;;;;;;15.10;10.13;;;;;;;;;;5037646;28;20466;-81
2023/06/30 05:20:51;;;;;;;14.77;10.53;;;;;;;;;;5036723;28;20478;-81
2023/06/30 05:23:18;;;;;;;15.10;10.40;;;;;;;;;;5037356;28;20982;-81
2023/06/30 05:25:46;;;;;;;18.17;10.17;;;;;;;;;;5043753;28;20847;-80
2023/06/30 05:28:12;;;;;;;17.13;8.93;;;;;;;;;;5050820;28;20450;-78
2023/06/30 05:30:40;;;;;;;12.30;10.17;;;;;;;;;;5051465;28;20477;-80
2023/06/30 05:33:06;;;;;;;14.23;10.53;;;;;;;;;;5054763;28;20530;-81
2023/06/30 05:35:32;;;;;;;15.00;11.03;;;;;;;;;;5053499;28;20472;-82
2023/06/30 05:37:59;;;;;;;16.63;11.10;;;;;;;;;;5049590;28;20499;-81
2023/06/30 05:40:26;;;;;;;16.70;10.17;;;;;;;;;;5050839;28;20536;-79
2023/06/30 05:42:54;;;;;;;17.40;10.33;;;;;;;;;;5033140;28;20510;-81
2023/06/30 05:45:20;;;;;;;13.60;10.40;;;;;;;;;;5038251;28;20989;-80
2023/06/30 05:47:47;;;;;;;14.13;10.80;;;;;;;;;;5051328;28;20506;-81
2023/06/30 05:50:13;;;;;;;15.60;11.13;;;;;;;;;;5043159;28;20464;-79
2023/06/30 05:52:40;;;;;;;13.33;11.03;;;;;;;;;;5031995;28;20467;-81
2023/06/30 05:55:08;;;;;;;13.87;10.80;;;;;;;;;;5025721;28;20415;-83
2023/06/30 05:57:34;;;;;;;12.30;9.50;;;;;;;;;;5033418;28;20485;-81
2023/06/30 06:00:03;;;;;;;16.13;9.97;;;;;;;;;;5027385;28;20457;-81
2023/06/30 06:02:29;;;;;;;16.53;9.60;;;;;;;;;;5030977;28;20526;-82
2023/06/30 06:04:55;;;;;;;12.17;9.70;;;;;;;;;;5025452;28;20473;-83
2023/06/30 06:07:22;;;;;;;14.53;9.57;;;;;;;;;;5035939;28;20472;-82
2023/06/30 06:09:48;;;;;;;14.67;8.70;;;;;;;;;;5034722;28;20456;-82
2023/06/30 06:12:14;;;;;;;15.70;8.30;;;;;;;;;;5027577;28;20978;-80
2023/06/30 06:14:41;;;;;;;14.03;8.13;;;;;;;;;;5032224;28;20468;-82
2023/06/30 06:17:09;;;;;;;10.27;9.27;;;;;;;;;;5030713;28;20477;-80
2023/06/30 06:19:35;;;;;;;14.50;8.73;;;;;;;;;;5022824;28;20485;-80
2023/06/30 06:22:02;;;;;;;44.53;9.83;;;;;;;;;;5023227;28;20448;-82
2023/06/30 06:24:28;;;;;;;16.60;9.40;;;;;;;;;;5021492;28;20448;-82
2023/06/30 06:26:54;;;;;;;11.03;8.77;;;;;;;;;;5035050;28;20484;-82
2023/06/30 06:29:22;;;;;;;14.30;8.50;;;;;;;;;;5033906;28;20442;-80
2023/06/30 06:31:49;;;;;;;14.20;8.93;;;;;;;;;;5030073;28;20465;-80
2023/06/30 06:34:17;;;;;;;9.07;7.43;;;;;;;;;;5027340;28;20891;-83
2023/06/30 06:36:44;;;;;;;11.27;8.63;;;;;;;;;;5034104;28;20453;-81
2023/06/30 06:39:11;;;;;;;8.93;6.70;;;;;;;;;;5029428;28;20465;-83
2023/06/30 06:41:38;;;;;;;11.83;8.63;;;;;;;;;;5029665;28;20437;-80
2023/06/30 06:44:04;;;;;;;8.77;7.50;;;;;;;;;;5028633;28;20867;-82
2023/06/30 06:46:31;;;;;;;10.77;8.37;;;;;;;;;;5035289;28;21028;-80
2023/06/30 06:48:59;;;;;;;13.47;8.90;;;;;;;;;;5027838;28;20989;-81
2023/06/30 06:51:27;;;;;;;12.50;8.00;;;;;;;;;;5033935;28;20457;-82
2023/06/30 06:53:53;;;;;;;10.27;6.03;;;;;;;;;;5032198;28;20476;-80
2023/06/30 06:56:21;;;;;;;9.63;6.37;;;;;;;;;;5028520;28;20462;-80
2023/06/30 06:58:48;;;;;;;12.73;8.93;;;;;;;;;;5032166;28;20475;-81
2023/06/30 07:01:14;;;;;;;8.13;7.33;;;;;;;;;;5030151;28;20841;-79
2023/06/30 07:03:40;;;;;;;10.43;7.40;;;;;;;;;;5031439;28;20469;-80
2023/06/30 07:06:07;;;;;;;9.90;5.63;;;;;;;;;;5031383;28;20441;-81
2023/06/30 07:08:36;;;;;;;9.53;5.60;;;;;;;;;;5027842;28;20469;-81
2023/06/30 07:11:02;;;;;;;6.20;3.50;;;;;;;;;;5034276;28;20457;-80
2023/06/30 07:13:29;;;;;;;9.40;4.20;;;;;;;;;;5031564;28;20526;-79
2023/06/30 07:15:55;;;;;;;7.30;5.00;;;;;;;;;;5034291;28;20467;-82
2023/06/30 07:18:22;;;;;;;6.43;5.50;;;;;;;;;;5033758;28;20476;-80
2023/06/30 07:20:49;;;;;;;7.30;4.97;;;;;;;;;;5034003;28;20467;-80
2023/06/30 07:23:15;;;;;;;7.10;4.73;;;;;;;;;;5034162;28;20473;-80
2023/06/30 07:25:43;;;;;;;6.20;4.10;;;;;;;;;;5035077;28;20447;-81
2023/06/30 07:28:10;;;;;;;8.23;4.00;;;;;;;;;;5026862;28;20842;-80
2023/06/30 07:30:37;;;;;;;5.87;3.27;;;;;;;;;;5030192;28;20453;-79
2023/06/30 07:33:04;;;;;;;6.67;2.80;;;;;;;;;;5033499;28;20480;-79
2023/06/30 07:35:30;;;;;;;4.20;2.20;;;;;;;;;;5054076;28;20456;-79
2023/06/30 07:37:57;;;;;;;5.70;2.50;;;;;;;;;;5049952;28;20535;-80
2023/06/30 07:40:23;;;;;;;4.17;2.70;;;;;;;;;;5031480;28;20444;-81
2023/06/30 07:42:53;;;;;;;2.93;2.60;;;;;;;;;;5028450;28;20835;-80
2023/06/30 07:45:19;;;;;;;4.70;2.97;;;;;;;;;;5052354;28;20466;-81
2023/06/30 07:47:47;;;;;;;4.53;2.20;;;;;;;;;;5046495;28;20472;-81
2023/06/30 07:50:14;;;;;;;4.33;2.40;;;;;;;;;;5043724;28;20542;-80
2023/06/30 07:52:42;;;;;;;4.90;2.87;;;;;;;;;;5044566;28;20451;-80
2023/06/30 07:55:09;;;;;;;5.50;2.70;;;;;;;;;;5029628;28;20457;-80
2023/06/30 07:57:35;;;;;;;6.30;2.37;;;;;;;;;;5031556;28;20488;-80
2023/06/30 08:00:04;;;;;;;5.90;2.73;;;;;;;;;;5034149;28;20491;-80
2023/06/30 08:02:30;;;;;;;3.80;2.80;;;;;;;;;;5034471;28;20535;-80
2023/06/30 08:04:57;;;;;;;5.10;2.40;;;;;;;;;;5030938;28;20830;-81
2023/06/30 08:07:23;;;;;;;3.10;2.73;;;;;;;;;;5024231;28;20564;-80
2023/06/30 08:09:49;;;;;;;4.77;2.10;;;;;;;;;;5025093;28;20461;-80
2023/06/30 08:12:16;;;;;;;4.67;2.40;;;;;;;;;;5030291;28;20458;-79
2023/06/30 08:14:42;;;;;;;10.70;2.50;;;;;;;;;;5032175;28;21021;-79
2023/06/30 08:17:10;;;;;;;4.70;2.03;;;;;;;;;;5023923;28;20489;-81
2023/06/30 08:19:41;;;;;;;3.93;2.07;;;;;;;;;;5032541;28;20480;-81
2023/06/30 08:22:07;;;;;;;2.10;1.97;;;;;;;;;;5027696;28;20535;-81
2023/06/30 08:24:34;;;;;;;3.90;2.20;;;;;;;;;;5030358;28;20858;-81
2023/06/30 08:27:00;;;;;;;3.83;1.83;;;;;;;;;;5027264;28;20931;-80
2023/06/30 08:29:26;;;;;;;3.40;1.90;;;;;;;;;;5018468;28;20473;-80
2023/06/30 08:31:54;;;;;;;6.03;2.83;;;;;;;;;;5029972;28;20460;-81
2023/06/30 08:34:25;;;;;;;4.80;2.00;;;;;;;;;;5027016;28;20545;-80
2023/06/30 08:36:52;;;;;;;4.03;1.70;;;;;;;;;;5020012;28;20445;-81
2023/06/30 08:39:18;;;;;;;7.40;2.23;;;;;;;;;;5022204;28;20473;-81
2023/06/30 08:41:46;;;;;;;5.90;2.40;;;;;;;;;;5032414;28;20467;-80
2023/06/30 08:44:13;;;;;;;5.73;2.30;;;;;;;;;;5033224;28;20473;-80
2023/06/30 08:46:39;;;;;;;2.30;2.10;;;;;;;;;;5028516;28;20460;-81
2023/06/30 08:49:06;;;;;;;2.80;1.70;;;;;;;;;;5026747;28;20852;-80
2023/06/30 08:51:33;;;;;;;2.43;2.23;;;;;;;;;;5037482;28;20455;-80
2023/06/30 08:54:00;;;;;;;2.53;1.87;;;;;;;;;;5033807;28;20469;-80
2023/06/30 08:56:26;;;;;;;3.23;2.00;;;;;;;;;;5028728;28;20935;-80
2023/06/30 08:58:53;;;;;;;3.77;1.87;;;;;;;;;;5034389;28;20476;-80
2023/06/30 09:01:19;;;;;;;6.60;2.57;;;;;;;;;;5033890;28;20815;-80
2023/06/30 09:03:46;;;;;;;5.70;1.77;;;;;;;;;;5029014;28;20469;-80
2023/06/30 09:06:14;;;;;;;4.67;2.20;;;;;;;;;;5036044;28;20452;-80
2023/06/30 09:08:44;;;;;;;4.97;2.30;;;;;;;;;;5035976;28;20479;-80
2023/06/30 09:11:10;;;;;;;4.67;2.30;;;;;;;;;;5034136;28;20448;-80
2023/06/30 09:13:37;;;;;;;4.87;2.00;;;;;;;;;;5035891;28;20472;-81
2023/06/30 09:16:08;;;;;;;5.73;1.57;;;;;;;;;;5027015;28;20449;-80
2023/06/30 09:18:34;;;;;;;4.87;1.50;;;;;;;;;;5026088;28;20474;-80
2023/06/30 09:21:00;;;;;;;2.97;1.50;;;;;;;;;;5030378;28;20463;-81
2023/06/30 09:23:27;;;;;;;3.50;2.10;;;;;;;;;;5036416;28;20480;-80
2023/06/30 09:25:55;;;;;;;5.50;2.17;;;;;;;;;;5033254;28;20953;-80
2023/06/30 09:28:21;;;;;;;4.33;1.63;;;;;;;;;;5028948;28;20492;-80
2023/06/30 09:30:48;;;;;;;3.97;2.00;;;;;;;;;;5022279;28;20901;-80
2023/06/30 09:33:15;;;;;;;4.10;1.97;;;;;;;;;;5035210;28;20475;-80
2023/06/30 09:35:42;;;;;;;5.33;1.60;;;;;;;;;;5033013;28;20472;-81
2023/06/30 09:38:10;;;;;;;2.33;1.57;;;;;;;;;;5020221;28;20469;-80
2023/06/30 09:40:36;;;;;;;2.77;2.10;;;;;;;;;;5034189;28;20534;-80
2023/06/30 09:43:06;;;;;;;2.60;1.93;;;;;;;;;;5033079;28;20479;-81
2023/06/30 09:45:32;;;;;;;3.07;1.67;;;;;;;;;;5036676;28;20495;-80
2023/06/30 09:47:59;;;;;;;5.07;2.43;;;;;;;;;;5033485;28;20475;-80
2023/06/30 09:50:25;;;;;;;3.57;2.03;;;;;;;;;;5034978;28;20441;-80
2023/06/30 09:52:52;;;;;;;2.90;1.80;;;;;;;;;;5030829;28;20483;-80
2023/06/30 09:55:18;;;;;;;3.03;2.47;;;;;;;;;;5037266;28;20460;-81
2023/06/30 09:57:46;;;;;;;3.90;2.03;;;;;;;;;;5028543;28;20480;-80
2023/06/30 10:00:16;;;;;;;5.67;2.23;;;;;;;;;;5026877;28;20484;-80
2023/06/30 10:02:43;;;;;;;4.03;2.10;;;;;;;;;;5031063;28;20535;-81
2023/06/30 10:05:09;;;;;;;4.47;1.93;;;;;;;;;;5036173;28;20522;-80
2023/06/30 10:07:36;;;;;;;1.80;1.70;;;;;;;;;;5033340;28;20488;-81
2023/06/30 10:10:02;;;;;;;3.27;1.80;;;;;;;;;;5021872;28;20448;-81
2023/06/30 10:12:30;;;;;;;2.80;1.90;;;;;;;;;;5032127;28;20524;-81
2023/06/30 10:14:56;;;;;;;3.30;1.90;;;;;;;;;;5019523;28;20473;-80
2023/06/30 10:17:24;;;;;;;3.87;2.33;;;;;;;;;;5031965;28;20477;-81
2023/06/30 10:19:52;;;;;;;4.23;2.57;;;;;;;;;;5022820;28;20497;-80
2023/06/30 10:22:18;;;;;;;7.77;2.90;;;;;;;;;;5016775;28;20446;-81
2023/06/30 10:24:47;;;;;;;5.27;2.80;;;;;;;;;;5030977;28;20477;-81
2023/06/30 10:27:15;;;;;;;3.93;2.33;;;;;;;;;;5032999;28;20462;-81
2023/06/30 10:29:41;;;;;;;2.90;2.30;;;;;;;;;;5028377;28;20466;-81
2023/06/30 10:32:08;;;;;;;3.60;2.20;;;;;;;;;;5029369;28;20551;-80
2023/06/30 10:34:36;;;;;;;2.93;2.43;;;;;;;;;;5028495;28;20486;-80
2023/06/30 10:37:04;;;;;;;2.13;1.93;;;;;;;;;;5033510;28;20977;-81
2023/06/30 10:39:31;;;;;;;4.20;2.20;;;;;;;;;;5030161;28;20484;-80
2023/06/30 10:41:57;;;;;;;3.43;1.87;;;;;;;;;;5029727;28;20460;-81
2023/06/30 10:44:36;;;;;;;1.70;1.60;;;;;;;;;;5034467;28;21006;-81
2023/06/30 10:47:04;;;;;;;3.70;1.80;;;;;;;;;;5028343;28;20444;-80
2023/06/30 10:49:33;;;;;;;7.13;1.97;;;;;;;;;;5029861;28;20509;-80
2023/06/30 10:52:02;;;;;;;3.07;1.70;;;;;;;;;;5032532;28;20830;-80
2023/06/30 10:54:29;;;;;;;2.10;1.80;;;;;;;;;;5027326;28;20481;-80
2023/06/30 10:57:05;;;;;;;1.83;1.50;;;;;;;;;;5024068;28;20464;-81
2023/06/30 10:59:36;;;;;;;4.60;2.20;;;;;;;;;;5031211;28;20484;-81
2023/06/30 11:02:13;;;;;;;4.40;1.80;;;;;;;;;;5037994;28;20460;-81
2023/06/30 11:04:40;;;;;;;3.30;1.87;;;;;;;;;;5033526;28;20503;-80
2023/06/30 11:07:10;;;;;;;2.20;1.87;;;;;;;;;;5029907;28;20464;-79
2023/06/30 11:09:55;;;;;;;2.43;2.00;;;;;;;;;;5030314;28;20472;-82
2023/06/30 11:12:23;;;;;;;2.57;2.37;;;;;;;;;;5027947;28;20838;-80
2023/06/30 11:14:53;;;;;;;5.73;2.47;;;;;;;;;;5031653;28;20476;-79
2023/06/30 11:17:20;;;;;;;7.73;1.97;;;;;;;;;;5027750;28;20472;-79
2023/06/30 11:19:56;;;;;;;2.10;1.90;;;;;;;;;;5033297;28;20866;-80
2023/06/30 11:22:25;;;;;;;3.03;1.97;;;;;;;;;;5032997;28;20862;-80
2023/06/30 11:24:51;;;;;;;1.70;1.57;;;;;;;;;;5023187;28;20473;-80
2023/06/30 11:27:18;;;;;;;4.67;1.73;;;;;;;;;;5028904;28;20510;-80
2023/06/30 11:29:44;;;;;;;1.90;1.60;;;;;;;;;;5017305;28;20858;-80
2023/06/30 11:32:12;;;;;;;3.00;2.23;;;;;;;;;;5026445;28;20939;-81
2023/06/30 11:34:39;;;;;;;8.80;1.93;;;;;;;;;;5032959;28;20483;-80
2023/06/30 11:37:06;;;;;;;2.23;2.03;;;;;;;;;;5034400;28;20467;-80
2023/06/30 11:39:35;;;;;;;2.83;2.00;;;;;;;;;;5032415;28;20475;-81
2023/06/30 11:42:01;;;;;;;2.47;1.97;;;;;;;;;;5034492;28;20449;-81
2023/06/30 11:44:27;;;;;;;2.43;2.03;;;;;;;;;;5033592;28;20480;-81
2023/06/30 11:46:55;;;;;;;2.63;2.43;;;;;;;;;;5018889;28;20448;-82
2023/06/30 11:49:21;;;;;;;2.50;1.90;;;;;;;;;;5047893;28;20496;-81
2023/06/30 11:51:48;;;;;;;2.93;2.23;;;;;;;;;;5044750;28;20452;-81
2023/06/30 11:54:15;;;;;;;2.17;1.97;;;;;;;;;;5039631;28;20480;-81
2023/06/30 11:56:42;;;;;;;4.80;2.37;;;;;;;;;;5028520;28;20448;-81
2023/06/30 11:59:09;;;;;;;3.50;2.03;;;;;;;;;;5027023;28;20504;-81
2023/06/30 12:01:35;;;;;;;4.83;2.20;;;;;;;;;;5033267;28;20488;-82
2023/06/30 12:04:16;;;;;;;3.87;1.93;;;;;;;;;;5033378;28;20468;-80
2023/06/30 12:06:43;;;;;;;4.40;1.90;;;;;;;;;;5030679;28;20460;-80
2023/06/30 12:09:09;;;;;;;5.77;3.20;;;;;;;;;;5023512;28;20473;-80
2023/06/30 12:11:36;;;;;;;3.00;1.97;;;;;;;;;;5031600;28;20483;-80
2023/06/30 12:14:09;;;;;;;6.00;2.50;;;;;;;;;;5026866;28;20559;-80
2023/06/30 12:16:42;;;;;;;3.97;2.13;;;;;;;;;;5033998;28;20457;-81
2023/06/30 12:19:09;;;;;;;2.93;1.80;;;;;;;;;;5028749;28;20476;-81
2023/06/30 12:21:35;;;;;;;2.40;1.97;;;;;;;;;;5029822;28;20982;-81
2023/06/30 12:24:03;;;;;;;3.00;2.00;;;;;;;;;;5026191;28;20468;-82
2023/06/30 12:26:30;;;;;;;3.50;1.93;;;;;;;;;;5033138;28;20556;-81
2023/06/30 12:29:02;;;;;;;5.17;2.40;;;;;;;;;;5031247;28;20476;-81
2023/06/30 12:31:33;;;;;;;5.50;2.00;;;;;;;;;;5032676;28;20449;-81
2023/06/30 12:33:59;;;;;;;2.70;2.10;;;;;;;;;;5032278;28;20472;-81
2023/06/30 12:36:28;;;;;;;4.80;2.40;;;;;;;;;;5032336;28;20552;-82
2023/06/30 12:38:54;;;;;;;2.57;2.07;;;;;;;;;;5029503;28;20472;-81
2023/06/30 12:41:21;;;;;;;4.53;2.60;;;;;;;;;;5029190;28;21018;-82
2023/06/30 12:43:48;;;;;;;4.60;2.00;;;;;;;;;;5031267;28;20586;-79
2023/06/30 12:46:14;;;;;;;3.03;2.03;;;;;;;;;;5030704;28;20456;-81
2023/06/30 12:48:42;;;;;;;6.30;2.70;;;;;;;;;;5032794;28;20482;-81
2023/06/30 12:51:08;;;;;;;6.10;1.77;;;;;;;;;;5030020;28;20453;-82
2023/06/30 12:53:34;;;;;;;4.80;2.90;;;;;;;;;;5029190;28;20476;-81
2023/06/30 12:56:01;;;;;;;2.60;2.10;;;;;;;;;;5029956;28;20456;-81
2023/06/30 12:58:27;;;;;;;3.83;2.20;;;;;;;;;;5030088;28;20504;-82
2023/06/30 13:00:54;;;;;;;4.50;2.47;;;;;;;;;;5029238;28;20502;-83
2023/06/30 13:03:20;;;;;;;6.23;2.30;;;;;;;;;;5027298;28;20491;-81
2023/06/30 13:05:50;;;;;;;4.30;2.60;;;;;;;;;;5021653;28;20454;-82
2023/06/30 13:08:18;;;;;;;8.30;2.47;;;;;;;;;;5033090;28;20881;-81
2023/06/30 13:10:45;;;;;;;2.13;1.93;;;;;;;;;;5052593;28;20460;-81
2023/06/30 13:13:12;;;;;;;3.03;2.00;;;;;;;;;;5052650;28;20472;-81
2023/06/30 13:15:38;;;;;;;2.93;2.10;;;;;;;;;;5051042;28;20456;-82
2023/06/30 13:18:04;;;;;;;1.80;1.60;;;;;;;;;;5043767;28;20483;-79
2023/06/30 13:20:31;;;;;;;2.33;1.77;;;;;;;;;;5049713;28;20486;-81
2023/06/30 13:22:58;;;;;;;3.57;1.90;;;;;;;;;;5053399;28;20451;-82
2023/06/30 13:25:25;;;;;;;5.50;2.43;;;;;;;;;;5053515;28;20451;-81
2023/06/30 13:27:51;;;;;;;4.97;2.27;;;;;;;;;;5050994;28;22280;-81
2023/06/30 13:30:18;;;;;;;2.47;2.10;;;;;;;;;;5049631;28;20955;-81
2023/06/30 13:32:44;;;;;;;2.20;2.00;;;;;;;;;;5051610;28;20470;-81
2023/06/30 13:35:10;;;;;;;1.70;1.60;;;;;;;;;;5042410;28;20448;-80
2023/06/30 13:37:37;;;;;;;2.13;1.90;;;;;;;;;;5047389;28;20471;-81
2023/06/30 13:40:07;;;;;;;6.03;2.47;;;;;;;;;;5029880;28;20491;-81
2023/06/30 13:42:34;;;;;;;2.40;1.93;;;;;;;;;;5031387;28;20453;-81
2023/06/30 13:45:00;;;;;;;3.37;1.80;;;;;;;;;;5033100;28;20469;-80
2023/06/30 13:47:27;;;;;;;2.10;1.67;;;;;;;;;;5033781;28;20468;-80
2023/06/30 13:49:53;;;;;;;2.10;1.63;;;;;;;;;;5025858;28;20472;-81
2023/06/30 13:52:20;;;;;;;2.30;1.80;;;;;;;;;;5030447;28;20456;-80
2023/06/30 13:54:46;;;;;;;2.47;1.80;;;;;;;;;;5035275;28;21092;-81
2023/06/30 13:57:14;;;;;;;2.67;2.00;;;;;;;;;;5035214;28;20472;-80
2023/06/30 13:59:40;;;;;;;4.40;2.20;;;;;;;;;;5032854;28;20472;-80
2023/06/30 14:02:07;;;;;;;4.97;2.17;;;;;;;;;;5036323;28;20480;-80
2023/06/30 14:04:33;;;;;;;4.10;2.00;;;;;;;;;;5033458;28;20997;-80
2023/06/30 14:07:02;;;;;;;4.20;2.00;;;;;;;;;;5040738;28;20445;-80
2023/06/30 14:09:28;;;;;;;5.30;2.10;;;;;;;;;;5026462;28;21011;-80
2023/06/30 14:11:54;;;;;;;6.90;2.17;;;;;;;;;;5025369;28;20451;-80
2023/06/30 14:14:22;;;;;;;2.63;1.80;;;;;;;;;;5030558;28;20504;-80
2023/06/30 14:16:49;;;;;;;3.40;2.20;;;;;;;;;;5024450;28;20451;-81
2023/06/30 14:19:16;;;;;;;3.63;2.03;;;;;;;;;;5033906;28;21091;-80
2023/06/30 14:21:43;;;;;;;2.07;1.87;;;;;;;;;;5035010;28;20488;-80
2023/06/30 14:24:09;;;;;;;2.97;2.40;;;;;;;;;;5030998;28;20465;-80
2023/06/30 14:26:36;;;;;;;1.83;1.70;;;;;;;;;;5033028;28;20969;-81
2023/06/30 14:29:02;;;;;;;3.50;1.93;;;;;;;;;;5031318;28;20469;-80
2023/06/30 14:31:30;;;;;;;7.73;1.90;;;;;;;;;;5031215;28;20449;-80
2023/06/30 14:33:56;;;;;;;2.90;1.83;;;;;;;;;;5034437;28;20465;-80
2023/06/30 14:36:23;;;;;;;3.43;2.10;;;;;;;;;;5029614;28;20448;-80
2023/06/30 14:38:49;;;;;;;4.47;1.70;;;;;;;;;;5026478;28;20985;-80